Time;durP1;ratioP1;P1;durP2;ratioP2;P2;SDS_P1;SDS_P2;PMS_P1;PMS_P2;Temp;Humidity;BMP_temperature;BMP_pressure;BME280_temperature;BME280_humidity;BME280_pressure;Samples;Min_cycle;Max_cycle;Signal;HPM_P1;HPM_P2
2021/12/28 00:00:34;;;;;;;4.27;2.17;;;;;;;9.44;99.14;96744.25;4865024;29;20764;-92
2021/12/28 00:03:02;;;;;;;3.03;1.80;;;;;;;9.41;98.80;96747.09;4870497;29;20693;-92
2021/12/28 00:05:32;;;;;;;2.80;1.60;;;;;;;9.36;98.81;96735.44;4834389;29;20668;-92
2021/12/28 00:08:00;;;;;;;2.17;1.70;;;;;;;9.32;99.00;96728.88;4851049;29;20641;-92
2021/12/28 00:10:29;;;;;;;3.47;1.83;;;;;;;9.31;98.57;96729.00;4836377;29;20660;-91
2021/12/28 00:12:57;;;;;;;4.00;1.90;;;;;;;9.29;98.61;96734.31;4836433;29;21049;-92
2021/12/28 00:15:35;;;;;;;3.93;1.50;;;;;;;9.26;98.58;96732.00;4851453;29;21198;-92
2021/12/28 00:18:04;;;;;;;3.00;2.00;;;;;;;9.31;98.88;96736.78;4833089;29;21304;-92
2021/12/28 00:20:39;;;;;;;3.87;1.87;;;;;;;9.37;98.76;96736.25;4851401;29;20637;-91
2021/12/28 00:23:13;;;;;;;5.27;1.80;;;;;;;9.40;98.56;96740.25;4866881;29;20722;-90
2021/12/28 00:25:41;;;;;;;2.30;1.50;;;;;;;9.43;98.42;96733.97;4847317;29;20745;-91
2021/12/28 00:28:09;;;;;;;3.33;1.60;;;;;;;9.46;98.18;96731.09;4854531;29;21240;-91
2021/12/28 00:30:38;;;;;;;4.83;1.70;;;;;;;9.51;98.08;96734.94;4849142;29;21233;-91
2021/12/28 00:33:07;;;;;;;4.53;2.03;;;;;;;9.55;98.31;96735.53;4853323;29;20700;-92
2021/12/28 00:35:38;;;;;;;4.43;2.20;;;;;;;9.54;97.83;96734.69;4848856;29;20747;-92
2021/12/28 00:38:07;;;;;;;3.00;1.93;;;;;;;9.51;97.72;96734.94;4851965;29;22100;-91
2021/12/28 00:40:36;;;;;;;4.77;2.07;;;;;;;9.53;97.81;96740.00;4836969;29;20657;-91
2021/12/28 00:43:04;;;;;;;2.63;1.90;;;;;;;9.51;97.45;96728.94;4840726;29;20653;-91
2021/12/28 00:45:32;;;;;;;3.77;2.50;;;;;;;9.47;97.47;96735.34;4850019;29;21431;-91
2021/12/28 00:48:01;;;;;;;5.73;2.17;;;;;;;9.48;98.05;96730.00;4864878;29;20654;-91
2021/12/28 00:50:30;;;;;;;4.00;2.00;;;;;;;9.49;97.50;96726.44;4833104;29;20689;-91
2021/12/28 00:52:59;;;;;;;6.33;2.33;;;;;;;9.47;97.40;96717.97;4834995;29;20645;-91
2021/12/28 00:55:28;;;;;;;6.07;2.33;;;;;;;9.46;97.11;96710.28;4832088;29;20748;-91
2021/12/28 00:57:56;;;;;;;2.97;1.83;;;;;;;9.37;97.42;96700.66;4845719;29;21437;-91
2021/12/28 01:00:26;;;;;;;3.00;1.70;;;;;;;9.32;97.69;96709.81;4844683;29;20648;-91
2021/12/28 01:02:56;;;;;;;3.63;2.00;;;;;;;9.31;97.41;96698.59;4836857;29;20658;-91
2021/12/28 01:05:25;;;;;;;4.27;2.00;;;;;;;9.29;97.55;96697.06;4850025;29;20678;-91
2021/12/28 01:07:55;;;;;;;6.03;2.37;;;;;;;9.27;97.73;96705.00;4851726;29;21105;-91
2021/12/28 01:10:28;;;;;;;4.53;1.90;;;;;;;9.22;97.99;96699.38;4829384;29;20638;-91
2021/12/28 01:12:56;;;;;;;5.40;1.93;;;;;;;9.21;97.57;96694.31;4853447;29;20646;-91
2021/12/28 01:15:26;;;;;;;5.23;1.77;;;;;;;9.22;97.96;96688.97;4833090;29;21473;-91
2021/12/28 01:17:55;;;;;;;4.90;2.10;;;;;;;9.23;97.61;96689.78;4850732;29;20658;-91
2021/12/28 01:20:23;;;;;;;8.37;2.20;;;;;;;9.15;97.55;96694.81;4865788;29;20745;-91
2021/12/28 01:22:52;;;;;;;3.97;1.70;;;;;;;9.13;97.13;96687.16;4835523;29;21009;-91
2021/12/28 01:25:20;;;;;;;3.10;1.60;;;;;;;9.08;96.30;96685.88;4850736;29;20743;-91
2021/12/28 01:27:50;;;;;;;2.97;1.43;;;;;;;9.04;96.42;96685.31;4849006;29;20638;-91
2021/12/28 01:30:20;;;;;;;3.40;1.47;;;;;;;9.00;96.12;96686.53;4836752;29;20633;-91
2021/12/28 01:32:49;;;;;;;4.93;1.90;;;;;;;8.94;96.23;96681.88;4834332;29;20649;-91
2021/12/28 01:35:18;;;;;;;2.27;1.77;;;;;;;8.88;96.22;96684.16;4850856;29;20638;-92
2021/12/28 01:37:47;;;;;;;3.63;2.13;;;;;;;8.83;96.26;96686.31;4861828;29;20683;-92
2021/12/28 01:40:18;;;;;;;3.53;1.87;;;;;;;8.73;95.22;96682.00;4837652;29;20672;-91
2021/12/28 01:43:06;;;;;;;3.60;1.67;;;;;;;8.68;96.54;96676.38;4851539;29;20653;-91
2021/12/28 01:45:53;;;;;;;3.73;1.77;;;;;;;8.60;96.23;96666.63;4851967;29;20653;-91
2021/12/28 01:48:26;;;;;;;6.63;2.17;;;;;;;8.53;95.87;96669.88;4850851;29;20657;-91
2021/12/28 01:50:57;;;;;;;3.03;1.40;;;;;;;8.54;95.37;96668.94;4847453;29;21099;-91
2021/12/28 01:53:26;;;;;;;3.03;1.70;;;;;;;8.55;97.14;96663.59;4854441;29;21106;-91
2021/12/28 01:55:56;;;;;;;5.43;1.73;;;;;;;8.57;96.71;96666.88;4847139;29;20658;-91
2021/12/28 01:58:26;;;;;;;4.93;1.50;;;;;;;8.55;97.30;96654.97;4848097;29;20665;-91
2021/12/28 02:00:55;;;;;;;3.23;1.47;;;;;;;8.49;96.70;96645.94;4847350;29;20698;-90
2021/12/28 02:03:26;;;;;;;6.33;1.87;;;;;;;8.50;96.15;96650.16;4848541;29;20740;-90
2021/12/28 02:05:54;;;;;;;7.13;1.70;;;;;;;8.48;96.13;96641.66;4866445;29;20673;-91
2021/12/28 02:08:23;;;;;;;5.83;1.40;;;;;;;8.52;96.24;96644.81;4858883;29;20640;-90
2021/12/28 02:10:53;;;;;;;3.03;1.40;;;;;;;8.57;97.10;96635.72;4852560;29;20649;-90
2021/12/28 02:13:22;;;;;;;6.37;1.40;;;;;;;8.55;95.93;96631.56;4853771;29;20646;-90
2021/12/28 02:15:52;;;;;;;7.43;1.50;;;;;;;8.49;96.40;96626.91;4838650;29;21005;-90
2021/12/28 02:18:22;;;;;;;6.50;1.70;;;;;;;8.45;96.47;96633.31;4837410;29;20666;-90
2021/12/28 02:20:53;;;;;;;4.60;1.77;;;;;;;8.47;95.83;96618.41;4870038;29;20676;-90
2021/12/28 02:23:23;;;;;;;7.73;1.70;;;;;;;8.51;96.54;96609.44;4868505;29;20680;-90
2021/12/28 02:25:52;;;;;;;3.07;1.60;;;;;;;8.52;95.99;96604.09;4857660;29;20652;-90
2021/12/28 02:28:21;;;;;;;3.93;1.47;;;;;;;8.52;95.63;96596.31;4841004;29;20763;-91
2021/12/28 02:30:51;;;;;;;4.23;1.60;;;;;;;8.53;95.99;96590.13;4868130;29;20740;-91
2021/12/28 02:33:21;;;;;;;6.43;1.70;;;;;;;8.53;95.40;96584.94;4855282;29;21250;-90
2021/12/28 02:35:50;;;;;;;6.27;1.80;;;;;;;8.52;95.79;96585.06;4855979;29;20656;-91
2021/12/28 02:38:19;;;;;;;6.00;2.07;;;;;;;8.52;95.61;96582.47;4871522;29;20671;-91
2021/12/28 02:40:48;;;;;;;5.53;2.50;;;;;;;8.55;95.43;96585.66;4851099;29;20654;-90
2021/12/28 02:43:17;;;;;;;7.00;2.00;;;;;;;8.55;96.17;96585.66;4853031;29;20634;-91
2021/12/28 02:45:50;;;;;;;7.07;2.10;;;;;;;8.56;95.78;96581.28;4849578;29;20651;-90
2021/12/28 02:48:19;;;;;;;6.50;1.70;;;;;;;8.59;95.92;96581.84;4855322;29;21244;-90
2021/12/28 02:50:54;;;;;;;6.17;1.77;;;;;;;8.63;95.23;96578.03;4854154;29;20649;-90
2021/12/28 02:53:24;;;;;;;6.90;1.93;;;;;;;8.66;95.22;96576.94;4849822;29;20643;-91
2021/12/28 02:55:54;;;;;;;3.93;1.50;;;;;;;8.65;94.86;96575.31;4852230;29;20662;-90
2021/12/28 02:58:30;;;;;;;6.53;1.60;;;;;;;8.59;94.59;96571.44;4840036;29;20778;-91
2021/12/28 03:01:01;;;;;;;8.00;1.60;;;;;;;8.61;95.15;96568.72;4836877;29;20655;-91
2021/12/28 03:03:31;;;;;;;2.43;1.20;;;;;;;8.56;95.18;96576.09;4850178;29;20726;-91
2021/12/28 03:06:01;;;;;;;7.60;1.60;;;;;;;8.57;94.52;96568.16;4837101;29;20707;-90
2021/12/28 03:08:32;;;;;;;9.73;2.00;;;;;;;8.58;94.69;96555.97;4868756;29;21191;-90
2021/12/28 03:11:02;;;;;;;5.37;2.13;;;;;;;8.61;95.00;96558.31;4850963;29;20646;-91
2021/12/28 03:13:32;;;;;;;5.23;1.83;;;;;;;8.62;94.44;96562.56;4838462;29;21205;-90
2021/12/28 03:16:00;;;;;;;8.83;2.00;;;;;;;8.65;94.07;96554.50;4848811;29;20983;-90
2021/12/28 03:18:28;;;;;;;5.23;1.70;;;;;;;8.68;94.14;96559.44;4851024;29;21225;-90
2021/12/28 03:20:57;;;;;;;7.63;1.97;;;;;;;8.70;93.74;96547.13;4846839;29;20740;-91
2021/12/28 03:23:26;;;;;;;7.13;2.00;;;;;;;8.72;93.49;96547.81;4867908;29;20647;-90
2021/12/28 03:25:56;;;;;;;6.00;2.20;;;;;;;8.71;93.53;96543.59;4850962;29;20653;-91
2021/12/28 03:28:25;;;;;;;13.03;2.60;;;;;;;8.70;94.55;96544.53;4853169;29;20647;-91
2021/12/28 03:30:55;;;;;;;5.60;2.40;;;;;;;8.74;94.49;96543.34;4836723;29;20995;-91
2021/12/28 03:33:25;;;;;;;12.00;2.90;;;;;;;8.77;93.54;96543.06;4853140;29;20644;-91
2021/12/28 03:35:53;;;;;;;8.37;2.33;;;;;;;8.79;94.36;96538.56;4851213;29;20672;-90
2021/12/28 03:38:21;;;;;;;10.90;3.77;;;;;;;8.81;93.02;96526.25;4839052;29;20653;-90
2021/12/28 03:40:51;;;;;;;6.90;2.63;;;;;;;8.75;92.67;96529.38;4833609;29;20660;-90
2021/12/28 03:43:22;;;;;;;3.83;2.37;;;;;;;8.59;92.69;96527.28;4853759;29;20656;-91
2021/12/28 03:45:51;;;;;;;5.40;2.37;;;;;;;8.46;91.85;96536.22;4849932;29;20653;-90
2021/12/28 03:48:20;;;;;;;2.77;2.40;;;;;;;8.27;91.25;96528.38;4833261;29;20649;-91
2021/12/28 03:50:48;;;;;;;6.17;2.70;;;;;;;8.15;91.48;96529.41;4848616;29;20659;-91
2021/12/28 03:53:16;;;;;;;5.43;2.30;;;;;;;8.09;91.78;96529.88;4852815;29;20679;-91
2021/12/28 03:55:44;;;;;;;5.57;2.13;;;;;;;8.17;92.46;96524.06;4834847;29;20651;-91
2021/12/28 03:58:12;;;;;;;4.43;2.87;;;;;;;8.16;93.19;96520.66;4849580;29;20652;-91
2021/12/28 04:00:45;;;;;;;10.13;2.87;;;;;;;8.20;93.27;96516.84;4835469;29;21319;-91
2021/12/28 04:03:14;;;;;;;6.00;2.27;;;;;;;8.26;93.45;96503.34;4838225;29;20648;-91
2021/12/28 04:05:44;;;;;;;5.33;2.30;;;;;;;8.27;93.14;96502.41;4834253;29;21040;-91
2021/12/28 04:08:13;;;;;;;7.53;2.20;;;;;;;8.26;93.46;96494.75;4830877;29;20642;-91
2021/12/28 04:10:52;;;;;;;6.10;2.00;;;;;;;8.32;94.54;96497.63;4849433;29;21710;-91
2021/12/28 04:13:21;;;;;;;6.27;2.17;;;;;;;8.40;94.07;96497.78;4834757;29;21078;-91
2021/12/28 04:15:51;;;;;;;5.03;1.73;;;;;;;8.47;93.52;96491.13;4831940;29;21062;-91
2021/12/28 04:18:20;;;;;;;9.70;2.03;;;;;;;8.55;93.49;96497.31;4851332;29;20737;-91
2021/12/28 04:20:48;;;;;;;4.93;2.27;;;;;;;8.65;92.92;96489.56;4848828;29;20909;-91
2021/12/28 04:23:17;;;;;;;6.87;2.00;;;;;;;8.68;93.34;96491.88;4852061;29;20643;-92
2021/12/28 04:25:45;;;;;;;7.87;2.10;;;;;;;8.71;93.54;96491.63;4849673;29;20652;-91
2021/12/28 04:28:14;;;;;;;6.47;1.67;;;;;;;8.74;93.05;96493.97;4834605;29;20648;-91
2021/12/28 04:30:42;;;;;;;6.83;2.03;;;;;;;8.75;93.00;96488.63;4849353;29;20668;-91
2021/12/28 04:33:12;;;;;;;8.40;1.77;;;;;;;8.82;92.48;96484.53;4852442;29;20676;-92
2021/12/28 04:35:40;;;;;;;8.30;1.73;;;;;;;8.90;92.78;96495.09;4850663;29;20763;-92
2021/12/28 04:38:08;;;;;;;5.10;1.93;;;;;;;8.95;93.30;96496.31;4848087;29;20645;-92
2021/12/28 04:40:39;;;;;;;7.27;1.93;;;;;;;9.01;93.27;96490.59;4847999;29;21263;-91
2021/12/28 04:43:07;;;;;;;5.67;1.60;;;;;;;9.09;92.80;96495.13;4850156;29;20656;-92
2021/12/28 04:45:37;;;;;;;3.90;1.50;;;;;;;9.13;92.62;96497.31;4850557;29;20772;-92
2021/12/28 04:48:07;;;;;;;7.10;2.17;;;;;;;9.17;92.00;96495.25;4854944;29;20657;-91
2021/12/28 04:50:39;;;;;;;3.70;1.63;;;;;;;9.16;92.20;96483.22;4847274;29;21801;-92
2021/12/28 04:53:10;;;;;;;3.10;1.50;;;;;;;9.18;92.86;96486.50;4834028;29;20671;-92
2021/12/28 04:55:39;;;;;;;4.10;1.73;;;;;;;9.21;92.71;96499.25;4849658;29;20669;-91
2021/12/28 04:58:08;;;;;;;3.70;1.43;;;;;;;9.20;91.93;96493.22;4836149;29;21007;-91
2021/12/28 05:00:36;;;;;;;8.30;1.80;;;;;;;9.17;92.24;96493.50;4850456;29;21035;-91
2021/12/28 05:03:05;;;;;;;3.20;1.70;;;;;;;9.16;93.14;96484.03;4850290;29;21116;-92
2021/12/28 05:05:34;;;;;;;4.43;2.07;;;;;;;9.15;92.62;96487.59;4848865;29;20675;-91
2021/12/28 05:08:05;;;;;;;4.67;2.13;;;;;;;9.15;93.23;96471.97;4831032;29;20642;-91
2021/12/28 05:10:34;;;;;;;7.20;1.60;;;;;;;9.16;92.85;96473.63;4846365;29;20654;-91
2021/12/28 05:13:03;;;;;;;4.40;1.60;;;;;;;9.17;93.35;96470.09;4850028;29;20640;-91
2021/12/28 05:15:31;;;;;;;8.43;1.80;;;;;;;9.18;93.51;96466.50;4850018;29;20645;-92
2021/12/28 05:18:00;;;;;;;6.83;1.83;;;;;;;9.20;93.33;96463.78;4833114;29;20648;-91
2021/12/28 05:20:28;;;;;;;4.83;1.60;;;;;;;9.20;93.34;96462.00;4848304;29;21033;-91
2021/12/28 05:22:56;;;;;;;11.87;1.83;;;;;;;9.24;94.24;96455.56;4851559;29;20765;-91
2021/12/28 05:25:26;;;;;;;3.07;1.37;;;;;;;9.20;94.09;96445.56;4847008;29;20745;-91
2021/12/28 05:27:54;;;;;;;7.43;1.70;;;;;;;9.21;93.87;96445.44;4849486;29;20652;-91
2021/12/28 05:30:22;;;;;;;5.40;1.67;;;;;;;9.19;94.18;96442.16;4848347;29;21242;-91
2021/12/28 05:32:50;;;;;;;4.03;1.53;;;;;;;9.20;93.82;96443.81;4849055;29;20649;-91
2021/12/28 05:35:19;;;;;;;7.30;1.67;;;;;;;9.21;94.31;96437.63;4849651;29;20637;-91
2021/12/28 05:37:47;;;;;;;3.83;1.40;;;;;;;9.25;93.90;96433.81;4853257;29;20638;-92
2021/12/28 05:40:16;;;;;;;7.87;1.50;;;;;;;9.30;94.04;96434.22;4849433;29;20647;-91
2021/12/28 05:42:46;;;;;;;5.13;1.30;;;;;;;9.30;94.49;96444.63;4853291;29;20668;-91
2021/12/28 05:45:14;;;;;;;4.60;1.47;;;;;;;9.31;94.89;96440.25;4833549;29;20651;-91
2021/12/28 05:47:42;;;;;;;6.00;1.50;;;;;;;9.34;95.50;96435.59;4866273;29;21245;-91
2021/12/28 05:50:11;;;;;;;6.00;1.50;;;;;;;9.36;94.90;96425.84;4852787;29;20737;-92
2021/12/28 05:52:39;;;;;;;5.47;1.60;;;;;;;9.34;95.20;96417.38;4849280;29;20677;-92
2021/12/28 05:55:08;;;;;;;4.73;1.40;;;;;;;9.39;94.71;96418.59;4830258;29;20641;-92
2021/12/28 05:57:37;;;;;;;4.47;1.30;;;;;;;9.37;95.23;96418.84;4852152;29;20637;-92
2021/12/28 06:00:10;;;;;;;4.50;1.57;;;;;;;9.35;94.95;96413.81;4833711;29;20714;-91
2021/12/28 06:02:38;;;;;;;6.03;2.13;;;;;;;9.36;95.21;96417.25;4866587;29;20739;-92
2021/12/28 06:05:07;;;;;;;4.10;1.47;;;;;;;9.38;95.82;96424.78;4829503;29;21112;-92
2021/12/28 06:07:35;;;;;;;6.83;1.80;;;;;;;9.39;96.06;96409.97;4851201;29;20745;-92
2021/12/28 06:10:05;;;;;;;4.50;1.63;;;;;;;9.39;95.76;96418.59;4850636;29;20636;-92
2021/12/28 06:12:33;;;;;;;4.47;1.73;;;;;;;9.42;95.77;96407.91;4866737;29;21210;-91
2021/12/28 06:15:01;;;;;;;5.53;1.83;;;;;;;9.43;95.74;96414.75;4832970;29;20642;-92
2021/12/28 06:17:31;;;;;;;3.40;1.60;;;;;;;9.45;95.73;96425.03;4832039;29;21194;-92
2021/12/28 06:19:59;;;;;;;5.40;2.47;;;;;;;9.45;95.53;96419.81;4836719;29;20652;-92
2021/12/28 06:22:28;;;;;;;6.67;2.13;;;;;;;9.39;95.24;96428.19;4864782;29;21236;-92
2021/12/28 06:24:56;;;;;;;3.63;2.30;;;;;;;9.39;95.78;96418.59;4851347;29;20752;-92
2021/12/28 06:27:24;;;;;;;6.50;1.57;;;;;;;9.41;95.49;96423.66;4850093;29;20648;-92
2021/12/28 06:29:52;;;;;;;1.80;1.37;;;;;;;9.46;95.70;96417.09;4852912;29;20710;-92
2021/12/28 06:32:20;;;;;;;4.10;1.73;;;;;;;9.45;95.35;96410.22;4849674;29;21272;-92
2021/12/28 06:34:50;;;;;;;6.07;1.70;;;;;;;9.46;96.23;96416.28;4869324;29;20996;-92
2021/12/28 06:37:18;;;;;;;4.00;1.90;;;;;;;9.46;96.09;96404.06;4850866;29;20685;-92
2021/12/28 06:39:46;;;;;;;3.23;2.00;;;;;;;9.43;96.18;96408.75;4848416;29;20653;-92
2021/12/28 06:42:14;;;;;;;3.93;1.70;;;;;;;9.40;96.12;96398.63;4847947;29;21265;-91
2021/12/28 06:44:44;;;;;;;3.30;1.73;;;;;;;9.39;96.69;96394.34;4849394;29;21136;-93
2021/12/28 06:47:13;;;;;;;4.07;1.90;;;;;;;9.35;96.91;96398.22;4846934;29;20661;-91
2021/12/28 06:49:41;;;;;;;3.67;1.93;;;;;;;9.37;96.60;96398.06;4851149;29;20642;-91
2021/12/28 06:52:10;;;;;;;3.63;1.43;;;;;;;9.38;97.42;96395.31;4851557;29;20655;-91
2021/12/28 06:54:39;;;;;;;2.70;1.60;;;;;;;9.36;97.01;96396.44;4848263;29;20654;-90
2021/12/28 06:57:09;;;;;;;2.53;1.60;;;;;;;9.36;96.89;96392.03;4853785;29;20651;-91
2021/12/28 06:59:40;;;;;;;3.10;1.90;;;;;;;9.34;96.98;96391.38;4840425;29;20655;-91
2021/12/28 07:02:09;;;;;;;2.50;1.33;;;;;;;9.36;97.28;96384.22;4855868;29;20660;-89
2021/12/28 07:04:37;;;;;;;4.73;1.60;;;;;;;9.38;96.79;96393.56;4850453;29;21185;-90
2021/12/28 07:07:05;;;;;;;4.30;1.37;;;;;;;9.37;97.65;96393.69;4844585;29;20677;-88
2021/12/28 07:09:36;;;;;;;3.10;1.63;;;;;;;9.42;97.43;96383.69;4847410;29;20640;-88
2021/12/28 07:12:05;;;;;;;2.53;1.50;;;;;;;9.44;97.02;96394.75;4849625;29;20646;-90
2021/12/28 07:14:33;;;;;;;7.60;4.77;;;;;;;9.46;96.65;96387.66;4835927;29;20738;-90
2021/12/28 07:17:01;;;;;;;3.27;2.40;;;;;;;9.49;96.28;96387.38;4853792;29;21774;-90
2021/12/28 07:19:30;;;;;;;4.47;1.87;;;;;;;9.50;96.34;96381.19;4851791;29;21280;-90
2021/12/28 07:21:58;;;;;;;2.30;1.40;;;;;;;9.52;95.95;96392.31;4850677;29;20657;-90
2021/12/28 07:24:26;;;;;;;7.73;4.50;;;;;;;9.53;95.22;96391.31;4849104;29;20648;-90
2021/12/28 07:26:55;;;;;;;4.87;3.20;;;;;;;9.59;95.63;96390.75;4848789;29;20641;-90
2021/12/28 07:29:24;;;;;;;2.10;1.47;;;;;;;9.62;95.58;96393.94;4865867;29;21208;-89
2021/12/28 07:31:52;;;;;;;2.63;1.57;;;;;;;9.64;94.84;96392.00;4851095;29;20665;-90
2021/12/28 07:34:20;;;;;;;2.40;1.37;;;;;;;9.64;94.86;96397.19;4854169;29;20648;-91
2021/12/28 07:36:48;;;;;;;3.40;1.73;;;;;;;9.64;95.03;96380.78;4833477;29;22055;-90
2021/12/28 07:39:16;;;;;;;2.97;1.40;;;;;;;9.62;94.99;96383.50;4857574;29;20648;-93
2021/12/28 07:41:45;;;;;;;3.53;2.00;;;;;;;9.63;95.31;96376.50;4839862;29;21047;-93
2021/12/28 07:44:16;;;;;;;4.63;1.53;;;;;;;9.62;94.82;96370.50;4834457;29;20653;-90
2021/12/28 07:46:44;;;;;;;2.27;1.57;;;;;;;9.65;94.77;96379.78;4850472;29;20760;-86
2021/12/28 07:49:12;;;;;;;2.50;1.60;;;;;;;9.69;94.47;96381.16;4851457;29;20670;-94
2021/12/28 07:51:40;;;;;;;4.50;2.00;;;;;;;9.71;94.14;96369.66;4841580;29;20715;-91
2021/12/28 07:54:08;;;;;;;3.90;1.70;;;;;;;9.76;94.29;96377.00;4868336;29;20640;-91
2021/12/28 07:56:37;;;;;;;2.87;1.60;;;;;;;9.78;94.09;96380.31;4855230;29;20628;-90
2021/12/28 07:59:06;;;;;;;2.10;1.60;;;;;;;9.84;94.29;96385.75;4838728;29;20638;-91
2021/12/28 08:01:36;;;;;;;4.00;2.03;;;;;;;9.88;94.11;96390.53;4836586;29;20673;-92
2021/12/28 08:04:05;;;;;;;2.00;1.27;;;;;;;9.90;94.05;96378.19;4851184;29;20643;-92
2021/12/28 08:06:33;;;;;;;2.77;1.63;;;;;;;9.93;94.04;96387.50;4837295;29;21284;-92
2021/12/28 08:09:01;;;;;;;1.93;1.20;;;;;;;9.97;94.03;96389.72;4836940;29;20641;-91
2021/12/28 08:11:29;;;;;;;2.40;1.37;;;;;;;10.03;93.31;96389.16;4853257;29;20741;-91
2021/12/28 08:13:57;;;;;;;2.93;1.40;;;;;;;10.06;93.93;96383.66;4853654;29;20642;-91
2021/12/28 08:16:26;;;;;;;3.63;1.90;;;;;;;10.11;92.64;96391.84;4850492;29;21056;-91
2021/12/28 08:18:55;;;;;;;3.07;2.60;;;;;;;10.14;93.98;96386.38;4835611;29;20680;-92
2021/12/28 08:21:43;;;;;;;7.37;2.47;;;;;;;10.17;93.01;96386.06;4852324;29;20660;-92
2021/12/28 08:24:12;;;;;;;2.40;1.00;;;;;;;10.18;92.60;96398.16;4850002;29;20648;-89
2021/12/28 08:26:40;;;;;;;1.53;0.87;;;;;;;10.23;92.37;96400.31;4852154;29;20681;-90
2021/12/28 08:29:08;;;;;;;1.70;1.00;;;;;;;10.22;93.08;96390.84;4869302;29;21217;-90
2021/12/28 08:31:37;;;;;;;1.50;0.70;;;;;;;10.22;93.30;96388.25;4836771;29;20756;-89
2021/12/28 08:34:06;;;;;;;1.70;0.90;;;;;;;10.26;92.23;96400.03;4852123;29;20630;-90
2021/12/28 08:36:34;;;;;;;1.20;0.70;;;;;;;10.28;92.97;96390.28;4850116;29;22135;-92
2021/12/28 08:39:03;;;;;;;1.70;0.90;;;;;;;10.31;91.93;96393.41;4851360;29;20637;-89
2021/12/28 08:41:31;;;;;;;1.20;0.67;;;;;;;10.35;92.30;96402.59;4833986;29;20657;-90
2021/12/28 08:44:00;;;;;;;1.40;0.73;;;;;;;10.32;92.30;96399.47;4850527;29;20684;-91
2021/12/28 08:46:29;;;;;;;1.50;0.60;;;;;;;10.29;93.19;96397.13;4849519;29;20647;-91
2021/12/28 08:48:57;;;;;;;1.30;0.63;;;;;;;10.32;93.04;96401.06;4852055;29;20663;-89
2021/12/28 08:51:27;;;;;;;1.60;0.90;;;;;;;10.31;92.92;96400.41;4851625;29;20650;-89
2021/12/28 08:53:55;;;;;;;1.53;0.80;;;;;;;10.34;92.80;96404.38;4853009;29;20727;-90
2021/12/28 08:56:23;;;;;;;1.47;0.60;;;;;;;10.34;94.82;96409.59;4848886;29;21208;-87
2021/12/28 08:58:51;;;;;;;1.53;0.70;;;;;;;10.34;92.96;96401.78;4849336;29;20638;-89
2021/12/28 09:01:19;;;;;;;1.03;0.60;;;;;;;10.32;93.94;96401.06;4831767;29;20642;-88
2021/12/28 09:03:48;;;;;;;1.40;0.60;;;;;;;10.33;94.15;96404.53;4846159;29;21225;-88
2021/12/28 09:06:19;;;;;;;3.90;2.80;;;;;;;10.32;93.44;96404.66;4832335;29;21253;-88
2021/12/28 09:08:49;;;;;;;6.17;3.70;;;;;;;10.38;94.16;96410.13;4860879;29;20681;-88
2021/12/28 09:11:17;;;;;;;2.17;0.73;;;;;;;10.42;94.36;96411.47;4864558;29;21076;-93
2021/12/28 09:13:45;;;;;;;0.90;0.40;;;;;;;10.42;95.46;96416.69;4832110;29;20648;-86
2021/12/28 09:16:13;;;;;;;2.07;0.60;;;;;;;10.39;95.42;96402.16;4844125;29;20659;-86
2021/12/28 09:18:42;;;;;;;1.30;0.80;;;;;;;10.41;95.56;96410.63;4845837;29;21266;-86
2021/12/28 09:21:10;;;;;;;1.63;0.70;;;;;;;10.39;95.47;96402.16;4849016;29;20640;-86
2021/12/28 09:23:39;;;;;;;1.00;0.50;;;;;;;10.42;95.77;96403.66;4833113;29;20669;-89
2021/12/28 09:26:28;;;;;;;1.03;0.50;;;;;;;10.48;94.54;96409.09;4848136;29;21225;-87
2021/12/28 09:28:56;;;;;;;1.30;0.60;;;;;;;10.53;94.42;96406.06;4848762;29;20636;-87
2021/12/28 09:31:24;;;;;;;0.93;0.40;;;;;;;10.57;93.74;96417.81;4852019;29;20668;-87
2021/12/28 09:33:53;;;;;;;1.00;0.50;;;;;;;10.58;95.32;96419.47;4853696;29;20684;-87
2021/12/28 09:36:21;;;;;;;0.93;0.40;;;;;;;10.61;95.10;96422.59;4852572;29;20652;-88
2021/12/28 09:38:49;;;;;;;1.17;0.60;;;;;;;10.61;94.03;96422.59;4849249;29;20634;-88
2021/12/28 09:41:18;;;;;;;2.00;0.60;;;;;;;10.61;96.33;96421.78;4869809;29;20744;-87
2021/12/28 09:43:47;;;;;;;1.93;0.60;;;;;;;10.62;95.68;96413.00;4832995;29;20672;-87
2021/12/28 09:46:16;;;;;;;1.10;0.50;;;;;;;10.66;95.67;96422.16;4847300;29;20649;-87
2021/12/28 09:48:44;;;;;;;1.00;0.50;;;;;;;10.68;95.84;96423.66;4849095;29;21192;-87
2021/12/28 09:51:12;;;;;;;1.00;0.50;;;;;;;10.68;95.76;96423.66;4831063;29;21242;-86
2021/12/28 09:53:41;;;;;;;2.87;1.73;;;;;;;10.67;95.50;96421.19;4825113;29;20652;-86
2021/12/28 09:56:10;;;;;;;2.93;1.20;;;;;;;10.70;95.17;96424.31;4859663;29;20650;-86
2021/12/28 09:58:40;;;;;;;1.00;0.50;;;;;;;10.71;95.78;96427.78;4858803;29;20649;-91
2021/12/28 10:01:11;;;;;;;1.10;0.60;;;;;;;10.75;94.74;96429.09;4833929;29;20651;-89
2021/12/28 10:03:39;;;;;;;1.60;0.77;;;;;;;10.74;95.34;96425.69;4844448;29;20654;-87
2021/12/28 10:06:18;;;;;;;0.90;0.40;;;;;;;10.74;95.24;96425.69;4832716;29;21309;-87
2021/12/28 10:08:47;;;;;;;1.17;0.60;;;;;;;10.75;94.45;96418.66;4849550;29;20629;-88
2021/12/28 10:11:16;;;;;;;1.20;0.60;;;;;;;10.76;94.07;96415.09;4848863;29;20648;-88
2021/12/28 10:13:44;;;;;;;1.10;0.57;;;;;;;10.76;93.77;96421.13;4845818;29;20650;-85
2021/12/28 10:16:15;;;;;;;1.13;0.50;;;;;;;10.82;93.94;96423.16;4848146;29;20718;-88
2021/12/28 10:18:43;;;;;;;2.33;0.60;;;;;;;10.81;94.61;96430.16;4843777;29;20645;-88
2021/12/28 10:21:11;;;;;;;1.60;0.50;;;;;;;10.85;94.75;96421.09;4844860;29;20640;-88
2021/12/28 10:23:42;;;;;;;1.10;0.60;;;;;;;10.90;94.90;96429.28;4867465;29;20669;-87
2021/12/28 10:26:15;;;;;;;1.20;0.50;;;;;;;10.94;95.03;96429.81;4847156;29;20699;-87
2021/12/28 10:28:43;;;;;;;1.20;0.60;;;;;;;10.99;94.49;96427.56;4850343;29;21225;-86
2021/12/28 10:31:20;;;;;;;1.10;0.50;;;;;;;11.00;96.56;96430.03;4850618;29;20649;-87
2021/12/28 10:33:55;;;;;;;1.20;0.50;;;;;;;10.99;95.09;96430.19;4846881;29;21203;-86
2021/12/28 10:36:32;;;;;;;1.20;0.60;;;;;;;11.05;96.68;96427.81;4850844;29;20648;-85
2021/12/28 10:39:02;;;;;;;1.43;0.70;;;;;;;11.12;96.78;96422.81;4838300;29;20693;-85
2021/12/28 10:41:30;;;;;;;1.70;1.10;;;;;;;11.19;95.85;96429.91;4851699;29;20680;-85
2021/12/28 10:43:59;;;;;;;2.23;1.40;;;;;;;11.30;96.04;96429.66;4851670;29;20724;-86
2021/12/28 10:46:29;;;;;;;2.50;1.60;;;;;;;11.44;95.66;96426.50;4850891;29;20681;-86
2021/12/28 10:49:00;;;;;;;1.40;0.70;;;;;;;11.54;96.78;96427.31;4834463;29;20652;-86
2021/12/28 10:51:31;;;;;;;1.43;0.70;;;;;;;11.61;94.43;96423.94;4850620;29;20914;-87
2021/12/28 10:54:12;;;;;;;1.00;0.50;;;;;;;11.70;95.25;96419.56;4853559;29;21280;-87
2021/12/28 10:56:41;;;;;;;1.30;0.60;;;;;;;11.72;95.75;96412.44;4850967;29;20721;-91
2021/12/28 10:59:12;;;;;;;1.70;0.47;;;;;;;11.71;94.64;96413.38;4853698;29;20662;-89
2021/12/28 11:01:42;;;;;;;1.70;0.63;;;;;;;11.73;95.42;96416.66;4850727;29;21091;-90
2021/12/28 11:04:12;;;;;;;1.10;0.50;;;;;;;11.69;93.93;96412.72;4852365;29;20658;-89
2021/12/28 11:06:42;;;;;;;1.17;0.60;;;;;;;11.58;96.14;96413.78;4830885;29;20673;-90
2021/12/28 11:09:12;;;;;;;1.10;0.50;;;;;;;11.54;95.68;96412.44;4828463;29;20650;-93
2021/12/28 11:11:41;;;;;;;2.13;0.60;;;;;;;11.52;96.14;96409.19;4848026;29;20662;-92
2021/12/28 11:14:11;;;;;;;1.70;0.80;;;;;;;11.55;96.36;96411.47;4833811;29;21297;-90
2021/12/28 11:16:39;;;;;;;1.20;0.60;;;;;;;11.58;96.54;96412.97;4845908;29;21198;-90
2021/12/28 11:19:11;;;;;;;2.53;1.27;;;;;;;11.58;96.31;96411.19;4852387;29;20675;-91
2021/12/28 11:21:40;;;;;;;7.30;4.07;;;;;;;11.63;97.74;96408.13;4866296;29;20705;-90
2021/12/28 11:24:13;;;;;;;1.60;0.70;;;;;;;11.63;96.84;96414.16;4833242;29;21013;-91
2021/12/28 11:26:42;;;;;;;1.30;0.60;;;;;;;11.66;96.98;96406.00;4850095;29;20641;-91
2021/12/28 11:29:15;;;;;;;1.70;0.70;;;;;;;11.66;98.98;96408.63;4849100;29;21706;-91
2021/12/28 11:31:46;;;;;;;1.40;0.60;;;;;;;11.72;99.36;96401.97;4850959;29;21299;-90
2021/12/28 11:34:23;;;;;;;1.10;0.60;;;;;;;11.69;99.59;96407.50;4849631;29;20637;-89
2021/12/28 11:36:54;;;;;;;1.40;0.60;;;;;;;11.66;99.92;96402.59;4817254;29;20647;-91
2021/12/28 11:39:25;;;;;;;1.20;0.60;;;;;;;11.70;100.00;96398.69;4826551;29;20673;-93
2021/12/28 11:41:55;;;;;;;2.90;1.10;;;;;;;11.80;99.13;96390.63;4864504;29;20652;-87
2021/12/28 11:44:24;;;;;;;2.07;0.70;;;;;;;11.84;99.46;96380.66;4837197;29;20727;-88
2021/12/28 11:46:53;;;;;;;1.60;0.70;;;;;;;11.92;99.86;96383.31;4862659;29;20648;-88
2021/12/28 11:49:26;;;;;;;2.00;1.10;;;;;;;11.97;98.87;96376.66;4845981;29;20661;-88